Time;durP1;ratioP1;P1;durP2;ratioP2;P2;SDS_P1;SDS_P2;PMS_P1;PMS_P2;Temp;Humidity;BMP_temperature;BMP_pressure;BME280_temperature;BME280_humidity;BME280_pressure;Samples;Min_cycle;Max_cycle;Signal;HPM_P1;HPM_P2
2022/01/04 00:00:34;;;;;;;28.88;15.70;;;;;;;;;;5069993;28;20464;-69
2022/01/04 00:03:00;;;;;;;28.20;15.35;;;;;;;;;;5069972;28;20032;-69
2022/01/04 00:05:25;;;;;;;24.27;13.52;;;;;;;;;;5070205;28;20384;-69
2022/01/04 00:07:51;;;;;;;26.75;14.63;;;;;;;;;;5070079;28;20021;-69
2022/01/04 00:10:22;;;;;;;24.95;14.63;;;;;;;;;;5069990;28;20032;-69
2022/01/04 00:15:32;;;;;;;24.17;13.73;;;;;;;;;;5070088;28;20066;-69
2022/01/04 00:17:58;;;;;;;24.80;13.40;;;;;;;;;;5070088;28;20017;-69
2022/01/04 00:20:23;;;;;;;26.38;13.77;;;;;;;;;;5069736;28;20457;-69
2022/01/04 00:22:49;;;;;;;25.25;13.18;;;;;;;;;;5070058;28;20025;-69
2022/01/04 00:25:15;;;;;;;23.48;13.52;;;;;;;;;;5069909;28;20028;-69
2022/01/04 00:27:41;;;;;;;24.70;13.65;;;;;;;;;;5070012;28;20017;-69
2022/01/04 00:30:07;;;;;;;27.77;13.18;;;;;;;;;;5069719;28;20027;-69
2022/01/04 00:32:33;;;;;;;28.65;14.38;;;;;;;;;;5069846;28;20028;-69
2022/01/04 00:34:58;;;;;;;25.00;13.07;;;;;;;;;;5070147;28;20032;-69
2022/01/04 00:37:23;;;;;;;22.85;12.98;;;;;;;;;;5069705;28;20059;-69
2022/01/04 00:39:49;;;;;;;22.77;12.52;;;;;;;;;;5069637;28;20017;-69
2022/01/04 00:42:15;;;;;;;22.65;13.20;;;;;;;;;;5069868;28;20020;-69
2022/01/04 00:44:40;;;;;;;24.23;12.85;;;;;;;;;;5069382;28;20103;-69
2022/01/04 00:47:08;;;;;;;24.85;12.90;;;;;;;;;;5069830;28;20025;-69
2022/01/04 00:49:34;;;;;;;24.33;13.48;;;;;;;;;;5069814;28;20036;-69
2022/01/04 00:52:01;;;;;;;21.55;12.35;;;;;;;;;;5073720;28;20017;-69
2022/01/04 00:54:26;;;;;;;25.50;13.23;;;;;;;;;;5073621;28;20070;-69
2022/01/04 00:56:52;;;;;;;24.42;13.10;;;;;;;;;;5073546;28;20025;-69
2022/01/04 00:59:17;;;;;;;23.25;12.80;;;;;;;;;;5073293;28;20073;-71
2022/01/04 01:01:43;;;;;;;21.77;12.15;;;;;;;;;;5055456;28;20052;-69
2022/01/04 01:04:09;;;;;;;23.65;12.05;;;;;;;;;;5073375;28;20538;-69
2022/01/04 01:06:35;;;;;;;23.55;12.55;;;;;;;;;;5073347;28;20063;-69
2022/01/04 01:09:01;;;;;;;21.50;11.95;;;;;;;;;;5073211;28;20020;-69
2022/01/04 01:11:26;;;;;;;27.77;12.27;;;;;;;;;;5073153;28;20025;-69
2022/01/04 01:13:53;;;;;;;22.08;12.73;;;;;;;;;;5073092;28;20407;-69
2022/01/04 01:16:19;;;;;;;22.70;13.07;;;;;;;;;;5073194;28;20017;-69
2022/01/04 01:18:44;;;;;;;20.48;11.82;;;;;;;;;;5073035;28;20502;-69
2022/01/04 01:21:10;;;;;;;21.52;13.63;;;;;;;;;;5072916;28;20031;-69
2022/01/04 01:23:36;;;;;;;22.88;14.38;;;;;;;;;;5072962;28;20033;-69
2022/01/04 01:26:03;;;;;;;25.55;13.90;;;;;;;;;;5072980;28;20031;-69
2022/01/04 01:28:29;;;;;;;23.23;13.88;;;;;;;;;;5073065;28;20464;-69
2022/01/04 01:30:54;;;;;;;24.95;13.75;;;;;;;;;;5072847;28;20036;-69
2022/01/04 01:33:20;;;;;;;21.88;12.70;;;;;;;;;;5072927;28;20094;-69
2022/01/04 01:35:46;;;;;;;25.92;13.48;;;;;;;;;;5072790;28;20499;-69
2022/01/04 01:38:14;;;;;;;25.30;13.95;;;;;;;;;;5072765;28;20068;-69
2022/01/04 01:40:40;;;;;;;22.13;12.93;;;;;;;;;;5072538;28;20020;-69
2022/01/04 01:43:06;;;;;;;25.38;13.27;;;;;;;;;;5072829;28;20429;-69
2022/01/04 01:45:32;;;;;;;26.48;13.85;;;;;;;;;;5073048;28;20222;-69
2022/01/04 01:47:58;;;;;;;23.55;14.20;;;;;;;;;;5072639;28;20498;-69
2022/01/04 01:50:24;;;;;;;21.20;12.57;;;;;;;;;;5072499;28;20259;-69
2022/01/04 01:52:51;;;;;;;25.20;14.20;;;;;;;;;;5072652;28;20048;-69
2022/01/04 01:55:19;;;;;;;21.48;12.23;;;;;;;;;;5072795;28;20389;-69
2022/01/04 01:57:46;;;;;;;19.85;11.95;;;;;;;;;;5072289;28;20506;-69
2022/01/04 02:00:14;;;;;;;22.35;12.57;;;;;;;;;;5072222;28;20023;-69
2022/01/04 02:02:40;;;;;;;21.35;12.15;;;;;;;;;;5071347;28;20071;-71
2022/01/04 02:05:06;;;;;;;25.10;13.05;;;;;;;;;;5072219;28;20055;-69
2022/01/04 02:07:33;;;;;;;24.45;12.93;;;;;;;;;;5072086;28;20480;-69
2022/01/04 02:10:05;;;;;;;24.75;12.90;;;;;;;;;;5072027;28;20103;-70
2022/01/04 02:12:33;;;;;;;22.50;12.77;;;;;;;;;;5072196;28;20081;-69
2022/01/04 02:14:59;;;;;;;22.90;12.20;;;;;;;;;;5071917;28;20036;-69
2022/01/04 02:17:25;;;;;;;20.67;12.18;;;;;;;;;;5072075;28;20078;-69
2022/01/04 02:19:55;;;;;;;21.00;12.25;;;;;;;;;;5071584;28;20067;-70
2022/01/04 02:22:21;;;;;;;22.73;11.52;;;;;;;;;;5071952;28;20111;-69
2022/01/04 02:24:47;;;;;;;21.10;11.75;;;;;;;;;;5053892;28;20064;-69
2022/01/04 02:27:14;;;;;;;21.45;11.40;;;;;;;;;;5071883;28;20060;-69
2022/01/04 02:29:40;;;;;;;17.15;10.32;;;;;;;;;;5071735;28;20460;-69
2022/01/04 02:32:06;;;;;;;20.02;11.35;;;;;;;;;;5071481;28;20032;-69
2022/01/04 02:34:31;;;;;;;21.55;11.73;;;;;;;;;;5071811;28;20016;-69
2022/01/04 02:36:58;;;;;;;18.73;10.88;;;;;;;;;;5071436;28;20059;-69
2022/01/04 02:39:23;;;;;;;20.98;10.38;;;;;;;;;;5071620;28;20511;-69
2022/01/04 02:41:49;;;;;;;20.30;11.45;;;;;;;;;;5071481;28;20048;-69
2022/01/04 02:44:14;;;;;;;19.80;11.07;;;;;;;;;;5071039;28;20051;-69
2022/01/04 02:46:40;;;;;;;21.77;11.13;;;;;;;;;;5071376;28;20031;-69
2022/01/04 02:49:05;;;;;;;19.95;11.60;;;;;;;;;;5071808;28;20376;-69
2022/01/04 02:51:31;;;;;;;17.23;10.10;;;;;;;;;;5071054;28;20460;-69
2022/01/04 02:53:56;;;;;;;17.08;10.20;;;;;;;;;;5071363;28;20028;-69
2022/01/04 02:56:22;;;;;;;19.58;10.70;;;;;;;;;;5071207;28;20033;-69
2022/01/04 02:58:47;;;;;;;20.08;10.13;;;;;;;;;;5071084;28;20066;-69
2022/01/04 03:01:12;;;;;;;20.15;10.82;;;;;;;;;;5071299;28;20028;-69
2022/01/04 03:03:38;;;;;;;16.63;9.57;;;;;;;;;;5071097;28;20028;-69
2022/01/04 03:06:03;;;;;;;17.55;9.65;;;;;;;;;;5071024;28;20094;-69
2022/01/04 03:08:29;;;;;;;19.83;9.98;;;;;;;;;;5070959;28;20027;-69
2022/01/04 03:10:54;;;;;;;17.63;9.35;;;;;;;;;;5070884;28;20032;-69
2022/01/04 03:13:20;;;;;;;16.40;9.07;;;;;;;;;;5070367;28;20145;-69
2022/01/04 03:15:46;;;;;;;20.48;9.43;;;;;;;;;;5070795;28;20032;-69
2022/01/04 03:18:13;;;;;;;14.73;8.55;;;;;;;;;;5071203;28;20040;-69
2022/01/04 03:20:39;;;;;;;16.35;8.73;;;;;;;;;;5070411;28;20038;-69
2022/01/04 03:23:08;;;;;;;16.17;9.27;;;;;;;;;;5052584;28;20066;-69
2022/01/04 03:25:37;;;;;;;15.80;8.88;;;;;;;;;;5071067;28;20286;-69
2022/01/04 03:28:03;;;;;;;16.27;9.07;;;;;;;;;;5070590;28;20071;-69
2022/01/04 03:30:29;;;;;;;15.85;8.23;;;;;;;;;;5070494;28;20033;-69
2022/01/04 03:32:54;;;;;;;18.73;9.60;;;;;;;;;;5070528;28;20487;-69
2022/01/04 03:35:23;;;;;;;13.57;8.73;;;;;;;;;;5052829;28;20086;-69
2022/01/04 03:37:50;;;;;;;16.48;9.13;;;;;;;;;;5070348;28;20029;-69
2022/01/04 03:40:16;;;;;;;15.02;9.02;;;;;;;;;;5070327;28;20062;-69
2022/01/04 03:42:41;;;;;;;14.32;8.02;;;;;;;;;;5070371;28;20101;-69
2022/01/04 03:45:07;;;;;;;17.17;8.40;;;;;;;;;;5070190;28;20098;-69
2022/01/04 03:47:33;;;;;;;13.10;8.02;;;;;;;;;;5070379;28;20525;-69
2022/01/04 03:49:59;;;;;;;15.43;8.25;;;;;;;;;;5070228;28;20039;-69
2022/01/04 03:52:24;;;;;;;14.52;7.57;;;;;;;;;;5070089;28;20029;-69
2022/01/04 03:54:50;;;;;;;13.65;7.75;;;;;;;;;;5070359;28;20033;-69
2022/01/04 03:57:15;;;;;;;15.30;7.20;;;;;;;;;;5070138;28;20051;-69
2022/01/04 03:59:41;;;;;;;13.65;6.57;;;;;;;;;;5070023;28;20095;-69
2022/01/04 04:02:06;;;;;;;13.43;7.32;;;;;;;;;;5070256;28;20055;-69
2022/01/04 04:04:31;;;;;;;13.55;7.03;;;;;;;;;;5070073;28;20407;-69
2022/01/04 04:06:57;;;;;;;14.25;7.18;;;;;;;;;;5070370;28;20074;-69
2022/01/04 04:09:23;;;;;;;12.57;6.82;;;;;;;;;;5070174;28;20113;-69
2022/01/04 04:11:48;;;;;;;11.63;6.18;;;;;;;;;;5069946;28;20031;-69
2022/01/04 04:14:14;;;;;;;11.63;6.18;;;;;;;;;;5070017;28;20024;-69
2022/01/04 04:16:39;;;;;;;11.85;6.40;;;;;;;;;;5070206;28;20107;-69
2022/01/04 04:19:05;;;;;;;9.75;5.85;;;;;;;;;;5069876;28;20100;-69
2022/01/04 04:21:31;;;;;;;10.50;6.10;;;;;;;;;;5069832;28;20090;-69
2022/01/04 04:23:56;;;;;;;10.40;5.70;;;;;;;;;;5069983;28;20107;-69
2022/01/04 04:26:21;;;;;;;11.18;5.88;;;;;;;;;;5072890;28;20500;-69
2022/01/04 04:28:47;;;;;;;12.52;6.55;;;;;;;;;;5074255;28;20445;-69
2022/01/04 04:31:13;;;;;;;11.10;6.00;;;;;;;;;;5073893;28;20556;-69
2022/01/04 04:33:38;;;;;;;10.05;5.45;;;;;;;;;;5073942;28;20387;-69
2022/01/04 04:36:04;;;;;;;11.30;5.80;;;;;;;;;;5073898;28;20021;-69
2022/01/04 04:38:29;;;;;;;9.68;5.47;;;;;;;;;;5073886;28;20055;-69
2022/01/04 04:40:55;;;;;;;11.68;6.10;;;;;;;;;;5073812;28;20039;-69
2022/01/04 04:43:20;;;;;;;12.65;5.80;;;;;;;;;;5073655;28;20111;-70
2022/01/04 04:45:46;;;;;;;14.68;5.50;;;;;;;;;;5073844;28;20074;-70
2022/01/04 04:48:12;;;;;;;9.63;5.30;;;;;;;;;;5074195;28;20074;-69
2022/01/04 04:50:38;;;;;;;10.57;5.43;;;;;;;;;;5073431;28;20380;-71
2022/01/04 04:53:04;;;;;;;11.68;5.55;;;;;;;;;;5073618;28;20472;-69
2022/01/04 04:55:30;;;;;;;9.70;5.00;;;;;;;;;;5073567;28;20038;-69
2022/01/04 04:57:56;;;;;;;10.10;5.43;;;;;;;;;;5073399;28;20021;-69
2022/01/04 05:00:22;;;;;;;8.57;5.10;;;;;;;;;;5073455;28;20162;-69
2022/01/04 05:02:47;;;;;;;10.05;5.10;;;;;;;;;;5073194;28;20062;-69
2022/01/04 05:05:12;;;;;;;11.35;5.93;;;;;;;;;;5073638;28;20051;-69
2022/01/04 05:07:38;;;;;;;10.75;5.78;;;;;;;;;;5073545;28;20468;-70
2022/01/04 05:10:05;;;;;;;9.02;5.22;;;;;;;;;;5073315;28;20025;-69
2022/01/04 05:12:31;;;;;;;11.90;5.20;;;;;;;;;;5073495;28;20112;-69
2022/01/04 05:14:56;;;;;;;9.32;5.40;;;;;;;;;;5073054;28;20103;-69
2022/01/04 05:17:22;;;;;;;9.82;5.25;;;;;;;;;;5073124;28;20082;-69
2022/01/04 05:19:47;;;;;;;11.65;5.53;;;;;;;;;;5073315;28;20032;-69
2022/01/04 05:22:13;;;;;;;9.32;5.30;;;;;;;;;;5072952;28;20021;-69
2022/01/04 05:24:38;;;;;;;10.98;5.35;;;;;;;;;;5073281;28;20029;-69
2022/01/04 05:27:04;;;;;;;10.50;5.22;;;;;;;;;;5073059;28;20078;-69
2022/01/04 05:29:30;;;;;;;11.65;5.72;;;;;;;;;;5072837;28;20476;-69
2022/01/04 05:31:55;;;;;;;10.18;5.07;;;;;;;;;;5072600;28;20107;-69
2022/01/04 05:34:21;;;;;;;13.52;5.70;;;;;;;;;;5073045;28;20027;-69
2022/01/04 05:36:46;;;;;;;13.15;6.10;;;;;;;;;;5072507;28;20219;-69
2022/01/04 05:39:12;;;;;;;12.40;6.22;;;;;;;;;;5072873;28;20024;-69
2022/01/04 05:41:37;;;;;;;14.43;6.47;;;;;;;;;;5072506;28;20419;-69
2022/01/04 05:44:03;;;;;;;12.57;6.35;;;;;;;;;;5072502;28;20112;-69
2022/01/04 05:46:28;;;;;;;12.85;6.00;;;;;;;;;;5072558;28;20021;-69
2022/01/04 05:48:54;;;;;;;9.90;5.82;;;;;;;;;;5072573;28;20031;-69
2022/01/04 05:51:19;;;;;;;12.23;5.65;;;;;;;;;;5072309;28;20430;-69
2022/01/04 05:53:45;;;;;;;11.57;5.75;;;;;;;;;;5072421;28;20507;-69
2022/01/04 05:56:10;;;;;;;11.07;6.28;;;;;;;;;;5072398;28;20043;-69
2022/01/04 05:58:36;;;;;;;12.18;6.75;;;;;;;;;;5072309;28;20029;-69
2022/01/04 06:01:01;;;;;;;13.25;6.93;;;;;;;;;;5072101;28;20028;-73
2022/01/04 06:03:27;;;;;;;16.75;8.13;;;;;;;;;;5072351;28;20029;-69
2022/01/04 06:05:54;;;;;;;16.17;6.95;;;;;;;;;;5072382;28;20184;-69
2022/01/04 06:08:20;;;;;;;11.73;5.25;;;;;;;;;;5072068;28;20024;-69
2022/01/04 06:10:50;;;;;;;14.25;6.78;;;;;;;;;;5072331;28;20051;-69
2022/01/04 06:16:00;;;;;;;12.23;5.75;;;;;;;;;;5072257;28;20051;-69
2022/01/04 06:18:25;;;;;;;10.98;6.00;;;;;;;;;;5072132;28;20416;-69
2022/01/04 06:20:51;;;;;;;14.43;5.72;;;;;;;;;;5071886;28;20095;-69
2022/01/04 06:23:16;;;;;;;9.60;5.80;;;;;;;;;;5071687;28;20032;-69
2022/01/04 06:25:42;;;;;;;11.77;6.30;;;;;;;;;;5071890;28;20052;-69
2022/01/04 06:28:08;;;;;;;15.63;5.97;;;;;;;;;;5071641;28;20086;-69
2022/01/04 06:30:34;;;;;;;13.60;6.15;;;;;;;;;;5071696;28;20464;-69
2022/01/04 06:32:59;;;;;;;13.80;6.07;;;;;;;;;;5071508;28;20031;-69
2022/01/04 06:35:27;;;;;;;10.38;5.47;;;;;;;;;;5071773;28;20032;-69
2022/01/04 06:37:53;;;;;;;13.32;5.70;;;;;;;;;;5071430;28;20044;-69
2022/01/04 06:40:19;;;;;;;11.02;5.68;;;;;;;;;;5071420;28;20024;-69
2022/01/04 06:42:44;;;;;;;11.00;4.88;;;;;;;;;;5071192;28;20369;-69
2022/01/04 06:45:11;;;;;;;10.70;5.05;;;;;;;;;;5071177;28;20105;-69
2022/01/04 06:47:36;;;;;;;11.15;4.47;;;;;;;;;;5070862;28;20028;-69
2022/01/04 06:50:04;;;;;;;8.15;4.18;;;;;;;;;;5071238;28;20029;-69
2022/01/04 06:52:29;;;;;;;9.55;4.63;;;;;;;;;;5071073;28;20035;-69
2022/01/04 06:54:55;;;;;;;12.63;5.05;;;;;;;;;;5071255;28;20032;-69
2022/01/04 06:57:20;;;;;;;15.18;7.13;;;;;;;;;;5071063;28;20035;-71
2022/01/04 06:59:46;;;;;;;12.77;5.75;;;;;;;;;;5071181;28;20028;-69
2022/01/04 07:02:11;;;;;;;11.82;5.47;;;;;;;;;;5070934;28;20040;-69
2022/01/04 07:04:37;;;;;;;11.93;5.93;;;;;;;;;;5070974;28;20035;-70
2022/01/04 07:07:02;;;;;;;15.15;6.82;;;;;;;;;;5071114;28;20028;-69
2022/01/04 07:09:28;;;;;;;11.73;6.00;;;;;;;;;;5070988;28;20028;-69
2022/01/04 07:11:54;;;;;;;9.40;5.05;;;;;;;;;;5070693;28;20024;-70
2022/01/04 07:14:19;;;;;;;13.77;5.72;;;;;;;;;;5071173;28;20052;-70
2022/01/04 07:16:45;;;;;;;9.93;5.03;;;;;;;;;;5070945;28;20366;-69
2022/01/04 07:19:10;;;;;;;9.43;4.20;;;;;;;;;;5070592;28;20052;-69
2022/01/04 07:21:36;;;;;;;12.73;4.22;;;;;;;;;;5070583;28;20448;-70
2022/01/04 07:24:03;;;;;;;6.95;3.80;;;;;;;;;;5070453;28;20038;-69
2022/01/04 07:26:29;;;;;;;9.50;5.13;;;;;;;;;;5070478;28;20098;-69
2022/01/04 07:28:55;;;;;;;10.13;5.00;;;;;;;;;;5070504;28;20468;-69
2022/01/04 07:31:21;;;;;;;10.40;5.07;;;;;;;;;;5070560;28;20127;-70
2022/01/04 07:33:46;;;;;;;10.65;5.68;;;;;;;;;;5070133;28;20474;-69
2022/01/04 07:36:12;;;;;;;13.68;6.15;;;;;;;;;;5070452;28;20054;-69
2022/01/04 07:38:38;;;;;;;13.38;5.60;;;;;;;;;;5070363;28;20115;-69
2022/01/04 07:41:04;;;;;;;9.63;5.30;;;;;;;;;;5070318;28;20095;-69
2022/01/04 07:43:31;;;;;;;7.13;4.50;;;;;;;;;;5069910;28;20024;-69
2022/01/04 07:45:56;;;;;;;11.63;5.05;;;;;;;;;;5070313;28;20427;-69
2022/01/04 07:48:21;;;;;;;7.82;4.40;;;;;;;;;;5070254;28;20480;-69
2022/01/04 07:50:48;;;;;;;10.23;4.32;;;;;;;;;;5070330;28;20028;-69
2022/01/04 07:53:13;;;;;;;8.52;4.20;;;;;;;;;;5070010;28;20031;-69
2022/01/04 07:55:38;;;;;;;11.10;4.10;;;;;;;;;;5070117;28;20416;-69
2022/01/04 07:58:04;;;;;;;11.23;4.18;;;;;;;;;;5069994;28;20059;-69
2022/01/04 08:00:30;;;;;;;9.13;4.22;;;;;;;;;;5070154;28;20145;-69
2022/01/04 08:02:55;;;;;;;9.27;3.85;;;;;;;;;;5070189;28;20029;-69
2022/01/04 08:05:22;;;;;;;8.60;4.30;;;;;;;;;;5070037;28;20492;-69
2022/01/04 08:07:49;;;;;;;12.95;4.28;;;;;;;;;;5070091;28;20149;-69
2022/01/04 08:10:14;;;;;;;10.27;4.40;;;;;;;;;;5070187;28;20023;-69
2022/01/04 08:12:41;;;;;;;10.52;4.60;;;;;;;;;;5069905;28;20024;-69
2022/01/04 08:15:08;;;;;;;10.32;4.57;;;;;;;;;;5070012;28;20464;-70
2022/01/04 08:17:34;;;;;;;14.27;4.63;;;;;;;;;;5070313;28;20109;-69
2022/01/04 08:20:00;;;;;;;8.90;4.70;;;;;;;;;;5069866;28;20115;-69
2022/01/04 08:22:32;;;;;;;9.00;4.78;;;;;;;;;;5069502;28;20021;-69
2022/01/04 08:25:00;;;;;;;10.75;5.18;;;;;;;;;;5069761;28;20032;-69
2022/01/04 08:27:26;;;;;;;11.10;5.00;;;;;;;;;;5069915;28;20028;-70
2022/01/04 08:29:52;;;;;;;11.05;4.70;;;;;;;;;;5069628;28;20460;-69
2022/01/04 08:32:17;;;;;;;11.02;4.95;;;;;;;;;;5069587;28;20047;-69
2022/01/04 08:34:43;;;;;;;11.70;5.40;;;;;;;;;;5069638;28;20024;-70
2022/01/04 08:37:08;;;;;;;11.40;5.30;;;;;;;;;;5069413;28;20389;-69
2022/01/04 08:39:34;;;;;;;14.57;5.60;;;;;;;;;;5069799;28;20447;-69
2022/01/04 08:42:01;;;;;;;15.70;5.50;;;;;;;;;;5069542;28;20521;-70
2022/01/04 08:44:28;;;;;;;13.90;6.13;;;;;;;;;;5069358;28;20029;-69
2022/01/04 08:46:53;;;;;;;12.55;5.43;;;;;;;;;;5069963;28;20025;-69
2022/01/04 08:49:19;;;;;;;13.75;5.63;;;;;;;;;;5069595;28;20365;-69
2022/01/04 08:51:46;;;;;;;10.90;4.85;;;;;;;;;;5069702;28;20535;-69
2022/01/04 08:54:11;;;;;;;14.88;5.35;;;;;;;;;;5069442;28;20100;-69
2022/01/04 08:56:37;;;;;;;13.05;5.07;;;;;;;;;;5069475;28;20151;-69
2022/01/04 08:59:05;;;;;;;11.50;5.13;;;;;;;;;;5069544;28;20495;-69
2022/01/04 09:01:31;;;;;;;9.75;4.90;;;;;;;;;;5051701;28;20438;-69
2022/01/04 09:03:58;;;;;;;11.07;5.45;;;;;;;;;;5069141;28;20028;-69
2022/01/04 09:06:24;;;;;;;10.43;4.90;;;;;;;;;;5069993;28;20017;-69
2022/01/04 09:08:50;;;;;;;8.70;4.93;;;;;;;;;;5069261;28;20027;-69
2022/01/04 09:11:21;;;;;;;15.23;5.32;;;;;;;;;;5070364;28;20035;-69
2022/01/04 09:13:46;;;;;;;10.30;5.20;;;;;;;;;;5072861;28;20020;-69
2022/01/04 09:18:48;;;;;;;8.05;4.60;;;;;;;;;;5073684;28;20032;-69
2022/01/04 09:21:17;;;;;;;10.95;5.90;;;;;;;;;;5072970;28;20032;-69
2022/01/04 09:23:45;;;;;;;12.45;5.82;;;;;;;;;;5072808;28;20060;-69
2022/01/04 09:26:11;;;;;;;10.80;4.55;;;;;;;;;;5072997;28;20021;-69
2022/01/04 09:28:37;;;;;;;9.88;4.75;;;;;;;;;;5072761;28;20025;-69
2022/01/04 09:31:02;;;;;;;13.63;4.68;;;;;;;;;;5072842;28;20519;-69
2022/01/04 09:33:28;;;;;;;10.88;4.78;;;;;;;;;;5072543;28;20031;-69
2022/01/04 09:35:54;;;;;;;11.18;4.38;;;;;;;;;;5072931;28;20029;-69
2022/01/04 09:38:20;;;;;;;16.73;7.88;;;;;;;;;;5072537;28;20044;-69
2022/01/04 09:40:48;;;;;;;16.02;8.52;;;;;;;;;;5072734;28;20021;-69
2022/01/04 09:43:14;;;;;;;17.05;9.40;;;;;;;;;;5072466;28;20103;-69
2022/01/04 09:45:40;;;;;;;35.85;19.00;;;;;;;;;;5072574;28;20131;-69
2022/01/04 09:48:05;;;;;;;26.70;15.98;;;;;;;;;;5072564;28;20033;-69
2022/01/04 09:50:32;;;;;;;21.48;11.20;;;;;;;;;;5072872;28;20568;-70
2022/01/04 09:52:59;;;;;;;19.83;8.98;;;;;;;;;;5072561;28;20373;-69
2022/01/04 09:55:25;;;;;;;17.50;7.93;;;;;;;;;;5072528;28;20377;-69
2022/01/04 09:57:50;;;;;;;10.77;5.20;;;;;;;;;;5072916;28;20074;-69
2022/01/04 10:00:18;;;;;;;10.68;4.95;;;;;;;;;;5072296;28;20454;-70
2022/01/04 10:02:52;;;;;;;13.38;5.50;;;;;;;;;;5072239;28;20184;-72
2022/01/04 10:05:23;;;;;;;11.73;6.95;;;;;;;;;;5072471;28;20301;-70
2022/01/04 10:07:59;;;;;;;13.23;6.03;;;;;;;;;;5072494;28;20479;-73
2022/01/04 10:10:25;;;;;;;15.68;6.47;;;;;;;;;;5072266;28;20464;-70
2022/01/04 10:12:57;;;;;;;11.63;6.05;;;;;;;;;;5072069;28;20035;-70
2022/01/04 10:15:34;;;;;;;19.30;7.28;;;;;;;;;;5071934;28;20024;-70
2022/01/04 10:18:13;;;;;;;14.25;6.97;;;;;;;;;;5072014;28;20021;-69
2022/01/04 10:21:12;;;;;;;16.77;6.65;;;;;;;;;;5072127;28;20035;-70
2022/01/04 10:23:50;;;;;;;17.23;7.65;;;;;;;;;;5070037;28;20040;-70
2022/01/04 10:26:16;;;;;;;27.40;9.27;;;;;;;;;;5071828;28;20358;-70
2022/01/04 10:28:46;;;;;;;15.50;7.18;;;;;;;;;;5071603;28;20035;-70
2022/01/04 10:31:16;;;;;;;26.45;11.00;;;;;;;;;;5071804;28;20028;-70
2022/01/04 10:33:41;;;;;;;17.60;7.93;;;;;;;;;;5071377;28;20591;-70
2022/01/04 10:36:12;;;;;;;18.35;8.10;;;;;;;;;;5071569;28;20283;-70
2022/01/04 10:38:43;;;;;;;17.02;7.30;;;;;;;;;;5071685;28;20033;-71
2022/01/04 10:41:09;;;;;;;16.02;8.20;;;;;;;;;;5071833;28;20027;-70
2022/01/04 10:43:43;;;;;;;12.77;6.82;;;;;;;;;;5071224;28;20028;-70
2022/01/04 10:46:10;;;;;;;15.70;7.20;;;;;;;;;;5071881;28;20050;-70
2022/01/04 10:48:44;;;;;;;17.38;7.93;;;;;;;;;;5071286;28;20053;-70
2022/01/04 10:51:12;;;;;;;15.40;7.32;;;;;;;;;;5071569;28;20027;-70
2022/01/04 10:53:42;;;;;;;13.85;6.97;;;;;;;;;;5071329;28;20028;-70
2022/01/04 10:56:11;;;;;;;15.77;6.93;;;;;;;;;;5071181;28;20060;-70
2022/01/04 10:58:40;;;;;;;17.27;7.10;;;;;;;;;;5071073;28;20037;-71
2022/01/04 11:01:12;;;;;;;15.70;6.65;;;;;;;;;;5071050;28;20028;-70
2022/01/04 11:03:42;;;;;;;15.52;7.10;;;;;;;;;;5070823;28;20051;-70
2022/01/04 11:06:19;;;;;;;21.13;7.55;;;;;;;;;;5070958;28;20519;-70
2022/01/04 11:08:45;;;;;;;16.77;6.85;;;;;;;;;;5070891;28;20025;-70
2022/01/04 11:11:10;;;;;;;14.85;7.18;;;;;;;;;;5070889;28;20036;-70
2022/01/04 11:13:36;;;;;;;31.55;14.65;;;;;;;;;;5070561;28;20082;-70
2022/01/04 11:16:02;;;;;;;16.15;7.88;;;;;;;;;;5071025;28;20020;-69
2022/01/04 11:18:30;;;;;;;23.75;11.55;;;;;;;;;;5070701;28;20036;-70
2022/01/04 11:20:56;;;;;;;30.98;15.85;;;;;;;;;;5070711;28;20262;-72
2022/01/04 11:23:25;;;;;;;37.83;20.23;;;;;;;;;;5070219;28;20131;-69
2022/01/04 11:25:51;;;;;;;22.08;12.93;;;;;;;;;;5070677;28;20020;-70
2022/01/04 11:28:17;;;;;;;15.13;7.63;;;;;;;;;;5070643;28;20021;-70
2022/01/04 11:30:46;;;;;;;17.25;7.70;;;;;;;;;;5070545;28;20357;-69
2022/01/04 11:33:43;;;;;;;17.48;9.38;;;;;;;;;;5070323;28;20029;-71
2022/01/04 11:36:09;;;;;;;21.05;9.27;;;;;;;;;;5070784;28;20073;-70
2022/01/04 11:38:37;;;;;;;18.35;7.70;;;;;;;;;;5070883;28;20391;-70
2022/01/04 11:41:04;;;;;;;18.10;9.40;;;;;;;;;;5070357;28;20060;-70
2022/01/04 11:43:36;;;;;;;21.10;9.73;;;;;;;;;;5069858;28;20678;-69
2022/01/04 11:46:03;;;;;;;19.40;9.60;;;;;;;;;;5070209;28;20024;-69
2022/01/04 11:48:44;;;;;;;18.80;8.98;;;;;;;;;;5070315;28;20029;-70
2022/01/04 11:51:29;;;;;;;22.73;8.85;;;;;;;;;;5070074;28;20028;-69
2022/01/04 11:54:15;;;;;;;17.77;8.45;;;;;;;;;;5069805;28;20179;-69
2022/01/04 11:56:49;;;;;;;25.20;10.23;;;;;;;;;;5070123;28;20032;-69
2022/01/04 11:59:20;;;;;;;17.20;8.70;;;;;;;;;;5069938;28;20024;-69
2022/01/04 12:01:46;;;;;;;22.75;8.02;;;;;;;;;;5070153;28;20056;-69
2022/01/04 12:04:12;;;;;;;15.10;8.40;;;;;;;;;;5069857;28;20052;-69
2022/01/04 12:06:42;;;;;;;23.30;8.13;;;;;;;;;;5070273;28;20503;-70
2022/01/04 12:09:27;;;;;;;21.15;8.77;;;;;;;;;;5070343;28;20288;-69
2022/01/04 12:11:53;;;;;;;19.38;7.68;;;;;;;;;;5070040;28;20407;-69
2022/01/04 12:14:27;;;;;;;17.48;8.00;;;;;;;;;;5069788;28;20037;-69
2022/01/04 12:17:07;;;;;;;14.77;7.47;;;;;;;;;;5069998;28;20503;-69
2022/01/04 12:19:50;;;;;;;19.13;8.82;;;;;;;;;;5069894;28;20387;-70
2022/01/04 12:22:30;;;;;;;18.85;8.07;;;;;;;;;;5069903;28;20028;-69
2022/01/04 12:25:02;;;;;;;21.63;7.88;;;;;;;;;;5069587;28;20293;-69
2022/01/04 12:27:28;;;;;;;18.65;7.95;;;;;;;;;;5051913;28;20020;-69
2022/01/04 12:30:22;;;;;;;14.15;7.25;;;;;;;;;;5069924;28;20090;-69
2022/01/04 12:32:48;;;;;;;19.13;9.15;;;;;;;;;;5069614;28;20107;-70
2022/01/04 12:35:16;;;;;;;13.88;7.72;;;;;;;;;;5069950;28;20448;-69
2022/01/04 12:37:42;;;;;;;19.60;8.30;;;;;;;;;;5069624;28;20094;-70
2022/01/04 12:40:08;;;;;;;20.73;7.97;;;;;;;;;;5069794;28;20021;-70
2022/01/04 12:42:33;;;;;;;20.65;8.18;;;;;;;;;;5069944;28;20103;-69
2022/01/04 12:44:59;;;;;;;14.70;8.00;;;;;;;;;;5069254;28;20036;-69
2022/01/04 12:47:25;;;;;;;20.77;8.60;;;;;;;;;;5072420;28;20028;-70
2022/01/04 12:49:51;;;;;;;22.83;8.55;;;;;;;;;;5073931;28;20024;-69
2022/01/04 12:52:19;;;;;;;18.50;8.52;;;;;;;;;;5073645;28;20029;-70
2022/01/04 12:54:46;;;;;;;25.80;9.38;;;;;;;;;;5073745;28;20070;-70
2022/01/04 12:57:20;;;;;;;19.30;8.45;;;;;;;;;;5073530;28;20526;-70
2022/01/04 12:59:57;;;;;;;19.42;8.85;;;;;;;;;;5073380;28;20104;-70
2022/01/04 13:02:27;;;;;;;19.42;8.82;;;;;;;;;;5073494;28;20012;-70
2022/01/04 13:04:56;;;;;;;22.20;8.43;;;;;;;;;;5073188;28;20029;-70
2022/01/04 13:07:28;;;;;;;20.73;9.05;;;;;;;;;;5073517;28;20029;-70
2022/01/04 13:10:14;;;;;;;16.73;8.48;;;;;;;;;;5073379;28;20025;-70
2022/01/04 13:12:40;;;;;;;21.58;8.15;;;;;;;;;;5073227;28;20028;-70
2022/01/04 13:15:08;;;;;;;22.42;8.45;;;;;;;;;;5072739;28;20037;-70
2022/01/04 13:17:34;;;;;;;20.85;8.15;;;;;;;;;;5073246;28;20210;-70
2022/01/04 13:20:00;;;;;;;17.42;8.40;;;;;;;;;;5073156;28;20063;-70
2022/01/04 13:22:28;;;;;;;17.00;7.70;;;;;;;;;;5073198;28;20450;-70
2022/01/04 13:25:04;;;;;;;15.38;7.68;;;;;;;;;;5072630;28;20542;-71
2022/01/04 13:27:36;;;;;;;17.02;8.05;;;;;;;;;;5055132;28;20029;-70
2022/01/04 13:30:12;;;;;;;18.05;7.57;;;;;;;;;;5072879;28;20048;-70
2022/01/04 13:32:54;;;;;;;15.88;7.80;;;;;;;;;;5073296;28;20036;-70
2022/01/04 13:35:26;;;;;;;16.33;8.38;;;;;;;;;;5073028;28;20020;-70
2022/01/04 13:37:58;;;;;;;18.67;8.60;;;;;;;;;;5072708;28;20063;-70
2022/01/04 13:40:26;;;;;;;18.25;8.20;;;;;;;;;;5072871;28;20016;-70
2022/01/04 13:43:00;;;;;;;18.55;8.48;;;;;;;;;;5072514;28;20027;-70
2022/01/04 13:45:26;;;;;;;18.35;8.13;;;;;;;;;;5072398;28;20035;-70
2022/01/04 13:47:56;;;;;;;20.40;8.48;;;;;;;;;;5072517;28;20020;-71
2022/01/04 13:50:33;;;;;;;18.13;10.23;;;;;;;;;;5072647;28;20020;-70
2022/01/04 13:53:04;;;;;;;18.00;7.80;;;;;;;;;;5072711;28;20025;-70
2022/01/04 13:55:58;;;;;;;20.73;8.18;;;;;;;;;;5072149;28;20025;-71
2022/01/04 13:58:45;;;;;;;19.73;8.45;;;;;;;;;;5072062;28;20052;-71
2022/01/04 14:01:12;;;;;;;23.20;8.70;;;;;;;;;;5072361;28;20048;-70
2022/01/04 14:03:38;;;;;;;28.20;9.07;;;;;;;;;;5072259;28;20024;-71
2022/01/04 14:06:03;;;;;;;21.77;8.85;;;;;;;;;;5072218;28;20035;-70
2022/01/04 14:08:48;;;;;;;18.30;7.60;;;;;;;;;;5072189;28;20310;-70
2022/01/04 14:11:22;;;;;;;18.92;7.95;;;;;;;;;;5072265;28;20100;-70
2022/01/04 14:13:50;;;;;;;20.98;8.27;;;;;;;;;;5072469;28;20128;-70
2022/01/04 14:16:17;;;;;;;19.73;8.55;;;;;;;;;;5071946;28;20035;-70
2022/01/04 14:19:05;;;;;;;22.95;7.78;;;;;;;;;;5072154;28;20027;-70
2022/01/04 14:21:43;;;;;;;18.63;7.93;;;;;;;;;;5072072;28;20108;-70
2022/01/04 14:24:33;;;;;;;18.60;8.25;;;;;;;;;;5071783;28;20025;-70
2022/01/04 14:27:01;;;;;;;17.60;8.05;;;;;;;;;;5072027;28;20221;-69
2022/01/04 14:29:39;;;;;;;18.15;6.97;;;;;;;;;;5071584;28;20565;-69
2022/01/04 14:32:08;;;;;;;15.05;7.32;;;;;;;;;;5053743;28;20399;-69
2022/01/04 14:34:34;;;;;;;17.50;7.70;;;;;;;;;;5071618;28;20025;-70
2022/01/04 14:36:59;;;;;;;21.08;9.52;;;;;;;;;;5071512;28;20032;-69
2022/01/04 14:39:26;;;;;;;15.68;7.28;;;;;;;;;;5071666;28;20021;-70